createdAt,value
2017-07-08T00:00:16.716Z,0
2017-07-08T00:01:27.078Z,0
2017-07-08T00:02:37.112Z,0
2017-07-08T00:03:47.470Z,0
2017-07-08T00:04:57.841Z,0
2017-07-08T00:06:08.183Z,0
2017-07-08T00:07:18.554Z,0
2017-07-08T00:08:28.951Z,0
2017-07-08T00:09:39.323Z,0
2017-07-08T00:10:49.666Z,0
2017-07-08T00:11:59.746Z,0
2017-07-08T00:13:10.095Z,0
2017-07-08T00:14:20.492Z,0
2017-07-08T00:15:30.841Z,0
2017-07-08T00:16:41.192Z,0
2017-07-08T00:17:51.555Z,0
2017-07-08T00:19:01.603Z,0
2017-07-08T00:20:12.018Z,0
2017-07-08T00:21:22.375Z,0
2017-07-08T00:22:32.786Z,0
2017-07-08T00:23:43.143Z,0
2017-07-08T00:24:53.492Z,0
2017-07-08T00:26:03.578Z,0
2017-07-08T00:27:13.940Z,0
2017-07-08T00:28:23.976Z,0
2017-07-08T00:29:33.694Z,0
2017-07-08T00:30:44.056Z,0
2017-07-08T00:31:54.470Z,0
2017-07-08T00:33:04.824Z,0
2017-07-08T00:34:14.874Z,0
2017-07-08T00:35:25.227Z,0
2017-07-08T00:36:35.256Z,0
2017-07-08T00:37:45.611Z,0
2017-07-08T00:38:55.954Z,0
2017-07-08T00:40:06.005Z,0
2017-07-08T00:41:16.366Z,0
2017-07-08T00:42:26.102Z,0
2017-07-08T00:43:36.496Z,0
2017-07-08T00:44:46.846Z,0
2017-07-08T00:45:57.200Z,0
2017-07-08T00:47:07.233Z,0
2017-07-08T00:48:17.267Z,0
2017-07-08T00:49:27.353Z,0
2017-07-08T00:50:37.398Z,0
2017-07-08T00:51:47.757Z,0
2017-07-08T00:52:58.126Z,0
2017-07-08T00:54:08.481Z,0
2017-07-08T00:55:18.574Z,0
2017-07-08T00:56:28.607Z,0
2017-07-08T00:57:38.946Z,0
2017-07-08T00:58:49.317Z,0
2017-07-08T00:59:59.353Z,0
2017-07-08T01:01:09.764Z,0
2017-07-08T01:02:20.133Z,0
2017-07-08T01:03:30.494Z,0
2017-07-08T01:04:40.540Z,0
2017-07-08T01:05:50.278Z,0
2017-07-08T01:07:00.640Z,0
2017-07-08T01:08:11.008Z,0
2017-07-08T01:09:21.039Z,0
2017-07-08T01:10:31.395Z,0
2017-07-08T01:11:41.748Z,0
2017-07-08T01:12:52.095Z,0
2017-07-08T01:14:02.473Z,0
2017-07-08T01:15:12.829Z,0
2017-07-08T01:16:23.183Z,0
2017-07-08T01:17:33.525Z,0
2017-07-08T01:18:43.942Z,0
2017-07-08T01:19:54.220Z,0
2017-07-08T01:21:04.577Z,0
2017-07-08T01:22:14.943Z,0
2017-07-08T01:23:25.283Z,0
2017-07-08T01:24:35.690Z,0
2017-07-08T01:25:46.051Z,0
2017-07-08T01:26:56.081Z,0
2017-07-08T01:28:06.428Z,0
2017-07-08T01:29:16.492Z,0
2017-07-08T01:30:26.901Z,0
2017-07-08T01:31:37.265Z,0
2017-07-08T01:32:47.619Z,0
2017-07-08T01:33:57.956Z,0
2017-07-08T01:35:08.303Z,0
2017-07-08T01:36:18.654Z,0
2017-07-08T01:37:28.997Z,0
2017-07-08T01:38:39.363Z,0
2017-07-08T01:39:49.715Z,0
2017-07-08T01:41:00.079Z,0
2017-07-08T01:42:10.487Z,0
2017-07-08T01:43:20.523Z,0
2017-07-08T01:44:30.552Z,0
2017-07-08T01:45:40.917Z,0
2017-07-08T01:46:51.271Z,0
2017-07-08T01:48:01.355Z,0
2017-07-08T01:49:11.389Z,0
2017-07-08T01:50:21.725Z,0
2017-07-08T01:51:31.767Z,0
2017-07-08T01:52:41.814Z,0
2017-07-08T01:53:51.896Z,0
2017-07-08T01:55:01.935Z,0
2017-07-08T01:56:12.274Z,0
2017-07-08T01:57:22.639Z,0
2017-07-08T01:58:32.992Z,0
2017-07-08T01:59:43.334Z,0
2017-07-08T02:00:53.696Z,0
2017-07-08T02:02:04.063Z,0
2017-07-08T02:03:14.098Z,0
2017-07-08T02:04:24.477Z,0
2017-07-08T02:05:34.564Z,0
2017-07-08T02:06:44.924Z,0
2017-07-08T02:07:54.945Z,0
2017-07-08T02:09:05.288Z,0
2017-07-08T02:10:15.649Z,0
2017-07-08T02:11:26.011Z,0
2017-07-08T02:12:36.039Z,0
2017-07-08T02:13:46.412Z,0
2017-07-08T02:14:56.457Z,0
2017-07-08T02:16:06.821Z,0
2017-07-08T02:17:17.181Z,0
2017-07-08T02:18:27.558Z,0
2017-07-08T02:19:37.928Z,0
2017-07-08T02:20:48.299Z,0
2017-07-08T02:21:58.347Z,0
2017-07-08T02:23:08.693Z,0
2017-07-08T02:24:19.048Z,0
2017-07-08T02:25:28.771Z,0
2017-07-08T02:26:39.126Z,0
2017-07-08T02:27:48.586Z,0
2017-07-08T02:28:58.345Z,0
2017-07-08T02:30:08.388Z,0
2017-07-08T02:31:18.741Z,0
2017-07-08T02:32:29.098Z,0
2017-07-08T02:33:39.451Z,0
2017-07-08T02:34:49.529Z,0
2017-07-08T02:35:59.888Z,0
2017-07-08T02:37:10.212Z,0
2017-07-08T02:38:20.568Z,0
2017-07-08T02:39:30.924Z,0
2017-07-08T02:40:41.360Z,0
2017-07-08T02:41:51.064Z,0
2017-07-08T02:43:01.094Z,0
2017-07-08T02:44:11.456Z,0
2017-07-08T02:45:21.514Z,0
2017-07-08T02:46:31.895Z,0
2017-07-08T02:47:42.238Z,0
2017-07-08T02:48:52.583Z,0
2017-07-08T02:50:03.004Z,0
2017-07-08T02:51:13.027Z,0
2017-07-08T02:52:23.110Z,0
2017-07-08T02:53:33.452Z,0
2017-07-08T02:54:43.808Z,0
2017-07-08T02:55:54.160Z,0
2017-07-08T02:57:04.203Z,0
2017-07-08T02:58:14.297Z,0
2017-07-08T02:59:24.025Z,0
2017-07-08T03:00:34.373Z,0
2017-07-08T03:01:44.735Z,5
2017-07-08T03:33:35.175Z,25
2017-07-08T03:34:45.530Z,25
2017-07-08T03:35:55.879Z,25
2017-07-08T03:37:06.226Z,25
2017-07-08T03:38:16.268Z,25
2017-07-08T03:39:26.355Z,25
2017-07-08T03:40:36.722Z,25
2017-07-08T03:41:47.087Z,30
2017-07-08T03:42:57.117Z,30
2017-07-08T03:44:07.463Z,30
2017-07-08T03:45:17.869Z,30
2017-07-08T03:46:27.910Z,30
2017-07-08T03:47:37.932Z,30
2017-07-08T03:48:48.279Z,30
2017-07-08T03:49:58.310Z,35
2017-07-08T03:51:08.662Z,35
2017-07-08T03:52:18.369Z,35
2017-07-08T03:53:28.735Z,35
2017-07-08T03:54:39.088Z,40
2017-07-08T03:55:49.446Z,40
2017-07-08T03:56:59.538Z,45
2017-07-08T03:58:09.575Z,45
2017-07-08T03:59:19.934Z,50
2017-07-08T04:00:30.281Z,50
2017-07-08T04:01:40.624Z,55
2017-07-08T04:02:51.041Z,60
2017-07-08T04:04:01.406Z,60
2017-07-08T04:05:11.763Z,65
2017-07-08T04:06:22.120Z,70
2017-07-08T04:07:32.479Z,65
2017-07-08T04:08:42.529Z,75
2017-07-08T04:09:52.257Z,80
2017-07-08T04:11:02.621Z,85
2017-07-08T04:12:12.989Z,85
2017-07-08T04:13:23.356Z,90
2017-07-08T04:14:33.128Z,90
2017-07-08T04:15:43.183Z,95
2017-07-08T04:16:53.571Z,95
2017-07-08T04:18:03.953Z,95
2017-07-08T04:19:14.309Z,95
2017-07-08T04:20:24.392Z,95
2017-07-08T04:21:34.748Z,100
2017-07-08T04:22:44.781Z,100
2017-07-08T04:23:55.131Z,110
2017-07-08T04:25:05.491Z,305
2017-07-08T04:26:15.837Z,510
2017-07-08T04:27:26.187Z,530
2017-07-08T04:28:36.549Z,510
2017-07-08T04:29:46.921Z,540
2017-07-08T04:30:56.963Z,510
2017-07-08T04:32:07.368Z,535
2017-07-08T04:33:17.752Z,500
2017-07-08T04:34:27.783Z,370
2017-07-08T04:35:37.815Z,520
2017-07-08T04:36:48.177Z,495
2017-07-08T04:37:58.579Z,515
2017-07-08T04:39:08.621Z,545
2017-07-08T04:40:18.967Z,450
2017-07-08T04:41:29.003Z,440
2017-07-08T04:42:39.355Z,475
2017-07-08T04:43:49.702Z,550
2017-07-08T04:44:59.727Z,180
2017-07-08T04:46:09.800Z,180
2017-07-08T04:47:20.153Z,260
2017-07-08T04:48:30.505Z,255
2017-07-08T04:49:40.862Z,315
2017-07-08T04:50:50.903Z,340
2017-07-08T04:52:01.269Z,445
2017-07-08T04:53:11.315Z,555
2017-07-08T04:54:21.755Z,530
2017-07-08T04:55:31.795Z,515
2017-07-08T04:56:41.564Z,550
2017-07-08T04:57:51.923Z,555
2017-07-08T04:59:02.284Z,550
2017-07-08T05:00:12.321Z,555
2017-07-08T05:01:22.408Z,525
2017-07-08T05:02:32.141Z,525
2017-07-08T05:03:42.192Z,545
2017-07-08T05:04:52.243Z,545
2017-07-08T05:06:02.300Z,570
2017-07-08T05:07:12.388Z,555
2017-07-08T05:08:22.407Z,525
2017-07-08T05:09:32.765Z,560
2017-07-08T05:10:43.127Z,570
2017-07-08T05:11:53.178Z,560
2017-07-08T05:13:03.602Z,530
2017-07-08T05:14:13.958Z,555
2017-07-08T05:15:24.043Z,550
2017-07-08T05:16:34.402Z,540
2017-07-08T05:17:44.761Z,540
2017-07-08T05:18:54.856Z,505
2017-07-08T05:20:05.216Z,500
2017-07-08T05:21:15.567Z,505
2017-07-08T05:22:25.921Z,525
2017-07-08T05:23:36.352Z,530
2017-07-08T05:24:46.716Z,520
2017-07-08T05:25:57.094Z,520
2017-07-08T05:27:07.457Z,525
2017-07-08T05:28:17.832Z,515
2017-07-08T05:29:28.189Z,500
2017-07-08T05:30:38.606Z,495
2017-07-08T05:31:48.970Z,485
2017-07-08T05:32:58.680Z,480
2017-07-08T05:34:09.033Z,480
2017-07-08T05:35:19.394Z,475
2017-07-08T05:36:29.804Z,445
2017-07-08T05:37:39.534Z,435
2017-07-08T05:38:49.908Z,445
2017-07-08T05:40:00.285Z,445
2017-07-08T05:41:10.646Z,440
2017-07-08T05:42:20.368Z,440
2017-07-08T05:43:30.746Z,445
2017-07-08T05:44:41.111Z,445
2017-07-08T05:45:51.489Z,440
2017-07-08T05:47:01.550Z,435
2017-07-08T05:48:11.912Z,430
2017-07-08T05:49:22.274Z,440
2017-07-08T05:50:32.633Z,430
2017-07-08T05:51:43.017Z,435
2017-07-08T05:52:52.754Z,440
2017-07-08T05:54:02.858Z,445
2017-07-08T05:55:12.903Z,450
2017-07-08T05:56:23.280Z,445
2017-07-08T05:57:33.651Z,425
2017-07-08T05:58:44.002Z,425
2017-07-08T05:59:54.425Z,425
2017-07-08T06:01:04.456Z,425
2017-07-08T06:02:14.819Z,420
2017-07-08T06:03:24.850Z,420
2017-07-08T06:04:35.228Z,420
2017-07-08T06:05:45.596Z,425
2017-07-08T06:06:55.963Z,430
2017-07-08T06:08:05.993Z,425
2017-07-08T06:09:16.338Z,420
2017-07-08T06:10:26.696Z,425
2017-07-08T06:11:37.121Z,425
2017-07-08T06:12:47.474Z,410
2017-07-08T06:13:57.816Z,405
2017-07-08T06:15:08.178Z,405
2017-07-08T06:16:18.225Z,385
2017-07-08T06:17:28.633Z,370
2017-07-08T06:18:38.691Z,355
2017-07-08T06:19:48.726Z,350
2017-07-08T06:20:59.080Z,345
2017-07-08T06:22:09.444Z,340
2017-07-08T06:23:19.791Z,335
2017-07-08T06:24:30.136Z,335
2017-07-08T06:25:40.496Z,335
2017-07-08T06:26:50.857Z,335
2017-07-08T06:28:01.218Z,330
2017-07-08T06:29:11.621Z,290
2017-07-08T06:30:21.971Z,325
2017-07-08T06:31:32.006Z,320
2017-07-08T06:32:42.380Z,320
2017-07-08T06:33:52.416Z,320
2017-07-08T06:35:02.838Z,315
2017-07-08T06:36:12.915Z,310
2017-07-08T06:37:23.272Z,305
2017-07-08T06:38:33.629Z,300
2017-07-08T06:39:43.345Z,290
2017-07-08T06:40:53.708Z,285
2017-07-08T06:42:03.746Z,285
2017-07-08T06:43:14.111Z,280
2017-07-08T06:44:24.458Z,280
2017-07-08T06:45:34.824Z,275
2017-07-08T06:46:44.873Z,280
2017-07-08T06:47:55.270Z,270
2017-07-08T06:49:05.631Z,265
2017-07-08T06:50:15.991Z,265
2017-07-08T06:51:26.348Z,265
2017-07-08T06:52:36.700Z,260
2017-07-08T06:53:47.053Z,260
2017-07-08T06:54:57.113Z,255
2017-07-08T06:56:06.830Z,255
2017-07-08T06:57:17.209Z,250
2017-07-08T06:58:27.575Z,250
2017-07-08T06:59:37.932Z,245
2017-07-08T07:00:48.304Z,240
2017-07-08T07:01:58.664Z,235
2017-07-08T07:03:09.031Z,235
2017-07-08T07:04:19.118Z,235
2017-07-08T07:05:29.153Z,230
2017-07-08T07:06:39.181Z,225
2017-07-08T07:07:49.228Z,220
2017-07-08T07:08:59.585Z,215
2017-07-08T07:10:09.991Z,225
2017-07-08T07:11:20.347Z,215
2017-07-08T07:12:30.715Z,210
2017-07-08T07:13:41.070Z,210
2017-07-08T07:14:51.666Z,205
2017-07-08T07:16:02.030Z,200
2017-07-08T07:17:12.385Z,190
2017-07-08T07:18:22.755Z,190
2017-07-08T07:19:32.797Z,185
2017-07-08T07:20:43.175Z,185
2017-07-08T07:21:53.293Z,185
2017-07-08T07:23:03.315Z,185
2017-07-08T07:24:13.363Z,190
2017-07-08T07:25:23.725Z,190
2017-07-08T07:26:34.083Z,190
2017-07-08T07:27:44.138Z,190
2017-07-08T07:28:54.519Z,190
2017-07-08T07:30:04.591Z,190
2017-07-08T07:31:14.635Z,190
2017-07-08T07:32:25.005Z,190
2017-07-08T07:33:35.091Z,195
2017-07-08T07:34:44.813Z,195
2017-07-08T07:35:55.159Z,195
2017-07-08T07:37:05.516Z,195
2017-07-08T07:38:15.888Z,195
2017-07-08T07:39:26.299Z,195
2017-07-08T07:40:36.038Z,195
2017-07-08T07:41:46.399Z,195
2017-07-08T07:42:56.441Z,205
2017-07-08T07:44:06.493Z,200
2017-07-08T07:45:16.903Z,200
2017-07-08T07:46:27.271Z,200
2017-07-08T07:47:37.636Z,205
2017-07-08T07:48:47.994Z,205
2017-07-08T07:49:58.365Z,205
2017-07-08T07:51:08.724Z,205
2017-07-08T07:52:19.074Z,205
2017-07-08T07:53:29.421Z,205
2017-07-08T07:54:39.472Z,205
2017-07-08T07:55:49.848Z,205
2017-07-08T07:57:00.238Z,205
2017-07-08T07:58:10.277Z,205
2017-07-08T07:59:20.646Z,205
2017-07-08T08:00:30.688Z,205
2017-07-08T08:01:41.061Z,210
2017-07-08T08:02:51.436Z,210
2017-07-08T08:04:01.478Z,210
2017-07-08T08:05:11.860Z,210
2017-07-08T08:06:22.229Z,215
2017-07-08T08:07:32.269Z,215
2017-07-08T08:08:42.671Z,215
2017-07-08T08:09:53.029Z,215
2017-07-08T08:11:03.398Z,220
2017-07-08T08:12:13.749Z,220
2017-07-08T08:13:24.154Z,220
2017-07-08T08:14:34.507Z,220
2017-07-08T08:15:44.901Z,225
2017-07-08T08:16:55.265Z,225
2017-07-08T08:18:05.628Z,230
2017-07-08T08:19:15.679Z,230
2017-07-08T08:20:26.095Z,230
2017-07-08T08:21:36.459Z,230
2017-07-08T08:22:46.505Z,230
2017-07-08T08:23:56.873Z,235
2017-07-08T08:25:06.918Z,235
2017-07-08T08:26:17.325Z,235
2017-07-08T08:27:27.360Z,235
2017-07-08T08:28:37.389Z,235
2017-07-08T08:29:47.757Z,235
2017-07-08T08:30:58.133Z,225
2017-07-08T08:32:08.186Z,235
2017-07-08T08:33:18.546Z,240
2017-07-08T08:34:28.902Z,240
2017-07-08T08:35:39.310Z,240
2017-07-08T08:36:49.361Z,235
2017-07-08T08:37:59.392Z,175
2017-07-08T08:39:09.747Z,230
2017-07-08T08:40:19.781Z,225
2017-07-08T08:41:30.158Z,235
2017-07-08T08:42:40.496Z,165
2017-07-08T08:43:50.856Z,160
2017-07-08T08:45:01.223Z,165
2017-07-08T08:46:11.585Z,220
2017-07-08T08:47:21.951Z,175
2017-07-08T08:48:32.313Z,215
2017-07-08T08:49:42.717Z,220
2017-07-08T08:50:53.147Z,220
2017-07-08T08:52:03.178Z,160
2017-07-08T08:53:13.541Z,215
2017-07-08T08:54:23.907Z,170
2017-07-08T08:55:34.317Z,225
2017-07-08T08:56:44.670Z,230
2017-07-08T08:57:54.725Z,225
2017-07-08T08:59:05.102Z,225
2017-07-08T09:00:15.446Z,225
2017-07-08T09:01:25.854Z,205
2017-07-08T09:02:36.220Z,235
2017-07-08T09:03:46.276Z,170
2017-07-08T09:04:56.674Z,170
2017-07-08T09:06:07.037Z,180
2017-07-08T09:07:17.402Z,235
2017-07-08T09:08:27.773Z,245
2017-07-08T09:09:38.143Z,240
2017-07-08T09:10:48.502Z,170
2017-07-08T09:11:58.868Z,165
2017-07-08T09:13:09.303Z,180
2017-07-08T09:14:19.365Z,195
2017-07-08T09:15:29.736Z,190
2017-07-08T09:16:39.777Z,255
2017-07-08T09:17:49.855Z,205
2017-07-08T09:18:59.558Z,230
2017-07-08T09:20:09.927Z,220
2017-07-08T09:21:20.310Z,205
2017-07-08T09:22:30.665Z,265
2017-07-08T09:23:41.018Z,270
2017-07-08T09:24:51.430Z,220
2017-07-08T09:26:01.797Z,185
2017-07-08T09:27:12.169Z,175
2017-07-08T09:28:22.278Z,175
2017-07-08T09:29:32.017Z,185
2017-07-08T09:30:42.045Z,260
2017-07-08T09:31:52.096Z,180
2017-07-08T09:33:01.811Z,175
2017-07-08T09:34:12.151Z,180
2017-07-08T09:35:21.930Z,200
2017-07-08T09:36:31.661Z,175
2017-07-08T09:37:41.706Z,170
2017-07-08T09:38:52.070Z,185
2017-07-08T09:40:02.463Z,265
2017-07-08T09:41:12.889Z,280
2017-07-08T09:42:23.265Z,270
2017-07-08T09:43:33.662Z,265
2017-07-08T09:44:44.026Z,270
2017-07-08T09:45:54.384Z,275
2017-07-08T09:47:04.417Z,280
2017-07-08T09:48:14.780Z,290
2017-07-08T09:49:24.859Z,285
2017-07-08T09:50:34.914Z,180
2017-07-08T09:51:45.345Z,185
2017-07-08T09:52:55.716Z,255
2017-07-08T09:54:05.438Z,190
2017-07-08T09:55:15.494Z,220
2017-07-08T09:56:25.869Z,275
2017-07-08T09:57:36.239Z,190
2017-07-08T09:58:46.605Z,180
2017-07-08T09:59:56.644Z,270
2017-07-08T10:01:06.423Z,285
2017-07-08T10:02:16.790Z,195
2017-07-08T10:03:27.148Z,205
2017-07-08T10:04:37.524Z,215
2017-07-08T10:05:47.895Z,200
2017-07-08T10:06:58.009Z,220
2017-07-08T10:08:08.369Z,190
2017-07-08T10:09:18.744Z,195
2017-07-08T10:10:28.808Z,280
2017-07-08T10:11:39.169Z,285
2017-07-08T10:12:49.572Z,280
2017-07-08T10:13:59.949Z,270
2017-07-08T10:15:10.300Z,295
2017-07-08T10:16:20.347Z,300
2017-07-08T10:17:30.716Z,310
2017-07-08T10:18:40.501Z,315
2017-07-08T10:19:50.879Z,320
2017-07-08T10:21:01.253Z,230
2017-07-08T10:22:11.610Z,320
2017-07-08T10:23:21.660Z,320
2017-07-08T10:24:31.777Z,315
2017-07-08T10:25:41.832Z,205
2017-07-08T10:26:52.209Z,190
2017-07-08T10:28:02.602Z,185
2017-07-08T10:29:12.977Z,190
2017-07-08T10:30:23.412Z,290
2017-07-08T10:31:33.470Z,295
2017-07-08T10:32:43.518Z,320
2017-07-08T10:33:53.894Z,335
2017-07-08T10:35:03.941Z,330
2017-07-08T10:36:14.031Z,230
2017-07-08T10:37:24.395Z,260
2017-07-08T10:38:34.759Z,205
2017-07-08T10:39:45.142Z,285
2017-07-08T10:40:55.519Z,285
2017-07-08T10:42:05.936Z,250
2017-07-08T10:43:15.678Z,185
2017-07-08T10:44:26.050Z,295
2017-07-08T10:45:36.431Z,305
2017-07-08T10:46:46.814Z,310
2017-07-08T10:47:56.910Z,200
2017-07-08T10:49:07.276Z,215
2017-07-08T10:50:17.009Z,230
2017-07-08T10:51:27.363Z,355
2017-07-08T10:52:37.731Z,360
2017-07-08T10:53:48.141Z,375
2017-07-08T10:54:58.201Z,360
2017-07-08T10:56:08.573Z,355
2017-07-08T10:57:18.951Z,340
2017-07-08T10:58:28.999Z,330
2017-07-08T10:59:39.379Z,325
2017-07-08T11:00:49.760Z,320
2017-07-08T11:02:00.129Z,315
2017-07-08T11:03:10.502Z,265
2017-07-08T11:04:20.881Z,215
2017-07-08T11:05:30.973Z,235
2017-07-08T11:06:41.023Z,315
2017-07-08T11:07:51.395Z,325
2017-07-08T11:09:01.447Z,335
2017-07-08T11:10:11.815Z,350
2017-07-08T11:11:22.161Z,345
2017-07-08T11:12:32.520Z,345
2017-07-08T11:13:42.569Z,330
2017-07-08T11:14:52.613Z,315
2017-07-08T11:16:02.659Z,305
2017-07-08T11:17:12.435Z,305
2017-07-08T11:18:22.807Z,315
2017-07-08T11:19:32.881Z,325
2017-07-08T11:20:43.247Z,325
2017-07-08T11:21:53.620Z,220
2017-07-08T11:23:04.026Z,315
2017-07-08T11:24:14.382Z,195
2017-07-08T11:25:24.761Z,175
2017-07-08T11:26:34.832Z,165
2017-07-08T11:27:44.892Z,160
2017-07-08T11:28:54.953Z,160
2017-07-08T11:30:05.327Z,155
2017-07-08T11:31:15.717Z,145
2017-07-08T11:32:25.787Z,140
2017-07-08T11:33:36.153Z,135
2017-07-08T11:34:46.522Z,130
2017-07-08T11:35:56.880Z,135
2017-07-08T11:37:07.241Z,145
2017-07-08T11:38:17.604Z,155
2017-07-08T11:39:27.989Z,165
2017-07-08T11:40:38.068Z,175
2017-07-08T11:41:48.574Z,175
2017-07-08T11:42:58.635Z,175
2017-07-08T11:44:09.022Z,170
2017-07-08T11:45:19.380Z,160
2017-07-08T11:46:29.430Z,150
2017-07-08T11:47:39.492Z,145
2017-07-08T11:48:49.867Z,140
2017-07-08T11:50:00.238Z,135
2017-07-08T11:51:10.315Z,135
2017-07-08T11:52:20.353Z,135
2017-07-08T11:53:29.778Z,135
2017-07-08T11:54:39.840Z,145
2017-07-08T11:55:49.895Z,150
2017-07-08T11:56:59.688Z,150
2017-07-08T11:58:10.064Z,155
2017-07-08T11:59:20.421Z,160
2017-07-08T12:00:30.797Z,155
2017-07-08T12:01:41.159Z,135
2017-07-08T12:02:51.530Z,120
2017-07-08T12:04:01.626Z,95
2017-07-08T12:05:11.985Z,75
2017-07-08T12:06:22.352Z,65
2017-07-08T12:07:32.713Z,50
2017-07-08T12:08:43.076Z,45
2017-07-08T12:09:53.482Z,45
2017-07-08T12:11:03.824Z,50
2017-07-08T12:12:13.875Z,55
2017-07-08T12:13:23.934Z,65
2017-07-08T12:14:34.295Z,90
2017-07-08T12:15:44.381Z,125
2017-07-08T12:16:54.747Z,150
2017-07-08T12:18:05.129Z,170
2017-07-08T12:19:15.501Z,170
2017-07-08T12:20:25.862Z,165
2017-07-08T12:21:36.271Z,155
2017-07-08T12:22:46.625Z,145
2017-07-08T12:23:56.508Z,140
2017-07-08T12:25:06.574Z,130
2017-07-08T12:26:16.938Z,125
2017-07-08T12:27:27.283Z,120
2017-07-08T12:28:37.369Z,125
2017-07-08T12:29:47.408Z,135
2017-07-08T12:30:57.771Z,150
2017-07-08T12:32:08.121Z,165
2017-07-08T12:33:18.217Z,170
2017-07-08T12:34:28.261Z,180
2017-07-08T12:35:38.303Z,185
2017-07-08T12:36:48.345Z,185
2017-07-08T12:37:58.389Z,175
2017-07-08T12:39:08.432Z,155
2017-07-08T12:40:18.789Z,130
2017-07-08T12:41:29.155Z,115
2017-07-08T12:42:39.201Z,105
2017-07-08T12:43:49.236Z,100
2017-07-08T12:44:59.650Z,100
2017-07-08T12:46:09.999Z,100
2017-07-08T12:47:20.365Z,105
2017-07-08T12:48:30.713Z,115
2017-07-08T12:49:41.061Z,115
2017-07-08T12:50:51.418Z,120
2017-07-08T12:52:01.457Z,125
2017-07-08T12:53:11.488Z,145
2017-07-08T12:54:21.841Z,160
2017-07-08T12:55:31.562Z,175
2017-07-08T12:56:42.182Z,195
2017-07-08T12:57:52.542Z,210
2017-07-08T12:59:02.626Z,230
2017-07-08T13:00:12.663Z,245
2017-07-08T13:01:23.002Z,260
2017-07-08T13:02:33.369Z,265
2017-07-08T13:03:43.730Z,270
2017-07-08T13:04:54.080Z,275
2017-07-08T13:06:04.438Z,295
2017-07-08T13:07:14.475Z,400
2017-07-08T13:08:24.511Z,400
2017-07-08T13:09:34.550Z,385
2017-07-08T13:10:44.575Z,380
2017-07-08T13:11:54.967Z,370
2017-07-08T13:13:05.008Z,355
2017-07-08T13:14:15.364Z,345
2017-07-08T13:15:25.399Z,335
2017-07-08T13:16:35.760Z,330
2017-07-08T13:17:45.801Z,320
2017-07-08T13:18:56.158Z,300
2017-07-08T13:20:06.196Z,245
2017-07-08T13:21:16.231Z,200
2017-07-08T13:22:26.637Z,200
2017-07-08T13:23:36.660Z,205
2017-07-08T13:24:47.046Z,205
2017-07-08T13:25:57.093Z,205
2017-07-08T13:27:07.449Z,215
2017-07-08T13:28:17.806Z,215
2017-07-08T13:29:28.169Z,215
2017-07-08T13:30:38.521Z,245
2017-07-08T13:31:48.874Z,255
2017-07-08T13:32:59.237Z,210
2017-07-08T13:34:09.294Z,200
2017-07-08T13:35:19.322Z,180
2017-07-08T13:36:29.359Z,170
2017-07-08T13:37:39.706Z,170
2017-07-08T13:38:50.072Z,175
2017-07-08T13:40:00.447Z,180
2017-07-08T13:41:10.851Z,185
2017-07-08T13:42:20.907Z,185
2017-07-08T13:43:31.278Z,190
2017-07-08T13:44:41.330Z,200
2017-07-08T13:45:51.067Z,215
2017-07-08T13:47:01.503Z,200
2017-07-08T13:48:11.857Z,200
2017-07-08T13:49:22.235Z,205
2017-07-08T13:50:32.300Z,200
2017-07-08T13:51:42.670Z,205
2017-07-08T13:52:53.017Z,280
2017-07-08T13:54:03.057Z,265
2017-07-08T13:55:13.416Z,280
2017-07-08T13:56:23.467Z,285
2017-07-08T13:57:33.835Z,240
2017-07-08T13:58:44.242Z,260
2017-07-08T13:59:54.605Z,355
2017-07-08T14:01:04.984Z,360
2017-07-08T14:02:15.331Z,355
2017-07-08T14:03:25.790Z,350
2017-07-08T14:04:36.212Z,340
2017-07-08T14:05:46.583Z,310
2017-07-08T14:06:56.938Z,295
2017-07-08T14:08:06.977Z,280
2017-07-08T14:09:17.354Z,270
2017-07-08T14:10:27.760Z,260
2017-07-08T14:11:38.124Z,255
2017-07-08T14:12:48.484Z,175
2017-07-08T14:13:58.851Z,165
2017-07-08T14:15:08.905Z,155
2017-07-08T14:16:19.009Z,160
2017-07-08T14:17:29.077Z,155
2017-07-08T14:18:39.128Z,155
2017-07-08T14:19:49.493Z,155
2017-07-08T14:20:59.222Z,155
2017-07-08T14:22:09.627Z,155
2017-07-08T14:23:19.983Z,155
2017-07-08T14:24:30.336Z,150
2017-07-08T14:25:40.688Z,145
2017-07-08T14:26:51.070Z,140
2017-07-08T14:28:01.179Z,135
2017-07-08T14:29:11.542Z,130
2017-07-08T14:30:21.269Z,125
2017-07-08T14:31:30.993Z,125
2017-07-08T14:32:41.027Z,120
2017-07-08T14:33:51.389Z,115
2017-07-08T14:35:01.803Z,120
2017-07-08T14:36:12.158Z,125
2017-07-08T14:37:22.201Z,135
2017-07-08T14:38:32.317Z,150
2017-07-08T14:39:42.739Z,165
2017-07-08T14:40:53.110Z,170
2017-07-08T14:42:03.477Z,165
2017-07-08T14:43:13.833Z,155
2017-07-08T14:44:24.195Z,150
2017-07-08T14:45:33.971Z,140
2017-07-08T14:46:44.324Z,135
2017-07-08T14:47:54.365Z,130
2017-07-08T14:49:04.421Z,125
2017-07-08T14:50:14.789Z,120
2017-07-08T14:51:25.130Z,125
2017-07-08T14:52:35.492Z,130
2017-07-08T14:53:45.540Z,140
2017-07-08T14:54:55.583Z,145
2017-07-08T14:56:05.974Z,155
2017-07-08T14:57:16.316Z,155
2017-07-08T14:58:26.678Z,160
2017-07-08T14:59:37.048Z,165
2017-07-08T15:00:47.430Z,175
2017-07-08T15:01:57.467Z,175
2017-07-08T15:03:07.875Z,170
2017-07-08T15:04:18.306Z,170
2017-07-08T15:05:28.684Z,175
2017-07-08T15:06:39.050Z,175
2017-07-08T15:07:49.429Z,180
2017-07-08T15:08:59.526Z,185
2017-07-08T15:10:09.892Z,190
2017-07-08T15:11:19.951Z,190
2017-07-08T15:12:30.303Z,185
2017-07-08T15:13:40.039Z,180
2017-07-08T15:14:50.450Z,175
2017-07-08T15:16:00.812Z,175
2017-07-08T15:17:11.174Z,180
2017-07-08T15:18:21.541Z,185
2017-07-08T15:19:31.579Z,185
2017-07-08T15:20:41.320Z,195
2017-07-08T15:21:51.686Z,185
2017-07-08T15:23:01.718Z,185
2017-07-08T15:24:12.092Z,185
2017-07-08T15:25:22.457Z,185
2017-07-08T15:26:32.877Z,185
2017-07-08T15:27:43.217Z,185
2017-07-08T15:28:53.267Z,190
2017-07-08T15:30:03.302Z,200
2017-07-08T15:31:13.351Z,230
2017-07-08T15:32:23.761Z,265
2017-07-08T15:33:34.111Z,235
2017-07-08T15:34:44.506Z,280
2017-07-08T15:35:54.870Z,260
2017-07-08T15:37:05.234Z,260
2017-07-08T15:38:15.753Z,210
2017-07-08T15:39:26.132Z,205
2017-07-08T15:40:36.184Z,235
2017-07-08T15:41:46.537Z,200
2017-07-08T15:42:56.269Z,190
2017-07-08T15:44:06.695Z,190
2017-07-08T15:45:17.044Z,190
2017-07-08T15:46:26.778Z,225
2017-07-08T15:47:37.166Z,215
2017-07-08T15:48:46.562Z,200
2017-07-08T15:49:56.994Z,200
2017-07-08T15:51:06.733Z,185
2017-07-08T15:52:17.089Z,170
2017-07-08T15:53:27.454Z,200
2017-07-08T15:54:37.812Z,175
2017-07-08T15:55:48.234Z,190
2017-07-08T15:56:58.281Z,145
2017-07-08T15:58:08.650Z,185
2017-07-08T15:59:18.998Z,180
2017-07-08T16:00:29.358Z,175
2017-07-08T16:01:39.386Z,175
2017-07-08T16:02:49.743Z,150
2017-07-08T16:04:00.161Z,165
2017-07-08T16:05:10.531Z,160
2017-07-08T16:06:20.569Z,155
2017-07-08T16:07:30.656Z,155
2017-07-08T16:08:40.764Z,155
2017-07-08T16:09:51.133Z,150
2017-07-08T16:11:01.187Z,140
2017-07-08T16:12:11.238Z,135
2017-07-08T16:13:21.323Z,125
2017-07-08T16:14:31.682Z,125
2017-07-08T16:15:41.734Z,115
2017-07-08T16:16:52.090Z,110
2017-07-08T16:18:02.122Z,100
2017-07-08T16:19:12.491Z,85
2017-07-08T16:20:22.889Z,90
2017-07-08T16:21:33.251Z,85
2017-07-08T16:22:43.293Z,85
2017-07-08T16:23:53.665Z,95
2017-07-08T16:25:03.798Z,100
2017-07-08T16:26:13.532Z,100
2017-07-08T16:27:23.565Z,100
2017-07-08T16:28:33.603Z,100
2017-07-08T16:29:43.654Z,105
2017-07-08T16:30:54.068Z,135
2017-07-08T16:32:04.425Z,110
2017-07-08T16:33:14.819Z,115
2017-07-08T16:34:24.868Z,120
2017-07-08T16:35:35.209Z,150
2017-07-08T16:36:45.875Z,155
2017-07-08T16:37:56.241Z,160
2017-07-08T16:39:06.607Z,155
2017-07-08T16:40:16.662Z,150
2017-07-08T16:41:27.027Z,150
2017-07-08T16:42:37.064Z,150
2017-07-08T16:43:47.150Z,145
2017-07-08T16:44:57.567Z,145
2017-07-08T16:46:07.928Z,140
2017-07-08T16:47:18.300Z,135
2017-07-08T16:48:28.677Z,130
2017-07-08T16:49:39.063Z,125
2017-07-08T16:50:49.437Z,120
2017-07-08T16:51:59.493Z,120